sensor_id;sensor_type;location;lat;lon;timestamp;noise_LAeq;noise_LA_min;noise_LA_max;noise_LA01;noise_LA95
69616;Laerm;56822;52.516;4.708;2024-02-23T00:00:09;40.77;39.19;42.32;;
69616;Laerm;56822;52.516;4.708;2024-02-23T00:00:21;42.28;39.27;46.78;;
69616;Laerm;56822;52.516;4.708;2024-02-23T00:00:31;44.12;39.56;49.06;;
69616;Laerm;56822;52.516;4.708;2024-02-23T00:00:42;41.62;39.56;44.28;;
69616;Laerm;56822;52.516;4.708;2024-02-23T00:00:52;41.78;39.66;46.14;;
69616;Laerm;56822;52.516;4.708;2024-02-23T00:01:02;42.15;39.55;45.87;;
69616;Laerm;56822;52.516;4.708;2024-02-23T00:01:13;41.14;39.67;43.36;;
69616;Laerm;56822;52.516;4.708;2024-02-23T00:01:23;40.98;39.43;43.43;;
69616;Laerm;56822;52.516;4.708;2024-02-23T00:01:35;46.32;40.42;54.18;;
69616;Laerm;56822;52.516;4.708;2024-02-23T00:01:45;41.97;39.97;49.12;;
69616;Laerm;56822;52.516;4.708;2024-02-23T00:01:55;41.46;40.04;43.88;;
69616;Laerm;56822;52.516;4.708;2024-02-23T00:02:06;42.49;40.07;48.31;;
69616;Laerm;56822;52.516;4.708;2024-02-23T00:02:16;42.72;39.92;55.44;;
69616;Laerm;56822;52.516;4.708;2024-02-23T00:02:26;41.12;39.42;45.48;;
69616;Laerm;56822;52.516;4.708;2024-02-23T00:02:37;48.57;40.55;62.80;;
69616;Laerm;56822;52.516;4.708;2024-02-23T00:02:47;50.96;44.63;64.55;;
69616;Laerm;56822;52.516;4.708;2024-02-23T00:02:58;44.49;40.92;50.91;;
69616;Laerm;56822;52.516;4.708;2024-02-23T00:03:08;43.53;39.84;47.10;;
69616;Laerm;56822;52.516;4.708;2024-02-23T00:03:20;41.64;39.74;46.66;;
69616;Laerm;56822;52.516;4.708;2024-02-23T00:03:31;41.33;39.56;47.14;;
69616;Laerm;56822;52.516;4.708;2024-02-23T00:03:41;41.45;39.61;48.93;;
69616;Laerm;56822;52.516;4.708;2024-02-23T00:03:51;43.19;39.71;47.04;;
69616;Laerm;56822;52.516;4.708;2024-02-23T00:04:02;41.18;39.72;42.70;;
69616;Laerm;56822;52.516;4.708;2024-02-23T00:04:12;41.54;39.61;44.33;;
69616;Laerm;56822;52.516;4.708;2024-02-23T00:04:23;41.14;39.53;44.16;;
69616;Laerm;56822;52.516;4.708;2024-02-23T00:04:33;41.01;39.26;44.34;;
69616;Laerm;56822;52.516;4.708;2024-02-23T00:04:43;40.67;39.19;42.94;;
69616;Laerm;56822;52.516;4.708;2024-02-23T00:04:54;40.96;39.40;43.43;;
69616;Laerm;56822;52.516;4.708;2024-02-23T00:05:05;40.78;39.30;44.24;;
69616;Laerm;56822;52.516;4.708;2024-02-23T00:05:15;41.26;39.63;44.36;;
69616;Laerm;56822;52.516;4.708;2024-02-23T00:05:25;41.19;39.07;45.11;;
69616;Laerm;56822;52.516;4.708;2024-02-23T00:05:36;41.25;39.37;45.29;;
69616;Laerm;56822;52.516;4.708;2024-02-23T00:05:46;41.09;39.69;43.31;;
69616;Laerm;56822;52.516;4.708;2024-02-23T00:05:57;41.09;39.18;44.98;;
69616;Laerm;56822;52.516;4.708;2024-02-23T00:06:07;41.02;39.14;45.06;;
69616;Laerm;56822;52.516;4.708;2024-02-23T00:06:19;41.07;39.40;43.51;;
69616;Laerm;56822;52.516;4.708;2024-02-23T00:06:29;40.79;38.84;43.07;;
69616;Laerm;56822;52.516;4.708;2024-02-23T00:06:39;41.38;39.42;45.34;;
69616;Laerm;56822;52.516;4.708;2024-02-23T00:06:49;41.28;39.54;43.47;;
69616;Laerm;56822;52.516;4.708;2024-02-23T00:07:00;41.31;39.39;45.53;;
69616;Laerm;56822;52.516;4.708;2024-02-23T00:07:13;40.80;39.11;45.69;;
69616;Laerm;56822;52.516;4.708;2024-02-23T00:07:23;40.48;38.63;42.80;;
69616;Laerm;56822;52.516;4.708;2024-02-23T00:07:33;41.18;39.32;46.61;;
69616;Laerm;56822;52.516;4.708;2024-02-23T00:07:43;42.36;40.13;45.94;;
69616;Laerm;56822;52.516;4.708;2024-02-23T00:07:54;44.70;41.08;49.54;;
69616;Laerm;56822;52.516;4.708;2024-02-23T00:08:06;42.48;40.17;48.05;;
69616;Laerm;56822;52.516;4.708;2024-02-23T00:08:17;41.46;39.71;44.83;;
69616;Laerm;56822;52.516;4.708;2024-02-23T00:08:29;40.69;39.27;43.40;;
69616;Laerm;56822;52.516;4.708;2024-02-23T00:08:39;41.08;39.30;43.57;;
69616;Laerm;56822;52.516;4.708;2024-02-23T00:08:51;40.62;39.03;48.33;;
69616;Laerm;56822;52.516;4.708;2024-02-23T00:09:03;40.76;39.47;44.49;;
69616;Laerm;56822;52.516;4.708;2024-02-23T00:09:14;41.18;39.77;44.41;;
69616;Laerm;56822;52.516;4.708;2024-02-23T00:09:25;40.80;39.60;43.55;;
69616;Laerm;56822;52.516;4.708;2024-02-23T00:09:35;41.38;39.54;49.05;;
69616;Laerm;56822;52.516;4.708;2024-02-23T00:09:45;41.25;39.42;46.70;;
69616;Laerm;56822;52.516;4.708;2024-02-23T00:09:55;41.50;40.12;46.95;;
69616;Laerm;56822;52.516;4.708;2024-02-23T00:10:06;41.26;39.64;43.36;;
69616;Laerm;56822;52.516;4.708;2024-02-23T00:10:16;42.06;39.85;46.79;;
69616;Laerm;56822;52.516;4.708;2024-02-23T00:10:27;42.64;40.17;52.25;;
69616;Laerm;56822;52.516;4.708;2024-02-23T00:10:37;42.09;39.44;53.07;;
69616;Laerm;56822;52.516;4.708;2024-02-23T00:10:47;43.69;40.78;55.32;;
69616;Laerm;56822;52.516;4.708;2024-02-23T00:10:58;41.80;39.84;46.14;;
69616;Laerm;56822;52.516;4.708;2024-02-23T00:11:08;42.81;40.13;48.48;;
69616;Laerm;56822;52.516;4.708;2024-02-23T00:11:18;44.39;40.36;50.53;;
69616;Laerm;56822;52.516;4.708;2024-02-23T00:11:29;42.05;39.82;48.13;;
69616;Laerm;56822;52.516;4.708;2024-02-23T00:11:40;42.31;39.81;49.88;;
69616;Laerm;56822;52.516;4.708;2024-02-23T00:11:54;43.66;39.79;48.69;;
69616;Laerm;56822;52.516;4.708;2024-02-23T00:12:04;41.73;39.50;47.22;;
69616;Laerm;56822;52.516;4.708;2024-02-23T00:12:15;41.06;39.44;44.06;;
69616;Laerm;56822;52.516;4.708;2024-02-23T00:12:25;40.64;39.13;43.55;;
69616;Laerm;56822;52.516;4.708;2024-02-23T00:12:35;40.87;39.33;44.16;;
69616;Laerm;56822;52.516;4.708;2024-02-23T00:12:46;42.10;39.88;45.09;;
69616;Laerm;56822;52.516;4.708;2024-02-23T00:12:57;42.67;40.37;50.99;;
69616;Laerm;56822;52.516;4.708;2024-02-23T00:13:08;45.36;39.92;59.44;;
69616;Laerm;56822;52.516;4.708;2024-02-23T00:13:18;44.70;40.15;52.37;;
69616;Laerm;56822;52.516;4.708;2024-02-23T00:13:29;45.60;41.87;57.46;;
69616;Laerm;56822;52.516;4.708;2024-02-23T00:13:39;46.58;41.52;60.63;;
69616;Laerm;56822;52.516;4.708;2024-02-23T00:13:49;48.78;41.51;54.58;;
69616;Laerm;56822;52.516;4.708;2024-02-23T00:13:59;46.92;42.58;56.03;;
69616;Laerm;56822;52.516;4.708;2024-02-23T00:14:10;43.63;41.19;49.93;;
69616;Laerm;56822;52.516;4.708;2024-02-23T00:14:21;45.04;41.21;51.37;;
69616;Laerm;56822;52.516;4.708;2024-02-23T00:14:31;44.51;41.25;48.47;;
69616;Laerm;56822;52.516;4.708;2024-02-23T00:14:42;43.76;40.94;51.12;;
69616;Laerm;56822;52.516;4.708;2024-02-23T00:14:52;44.78;40.65;57.17;;
69616;Laerm;56822;52.516;4.708;2024-02-23T00:15:03;41.84;40.15;44.25;;
69616;Laerm;56822;52.516;4.708;2024-02-23T00:15:14;46.97;40.34;55.21;;
69616;Laerm;56822;52.516;4.708;2024-02-23T00:15:24;42.98;40.37;47.87;;
69616;Laerm;56822;52.516;4.708;2024-02-23T00:15:35;41.58;39.88;47.37;;
69616;Laerm;56822;52.516;4.708;2024-02-23T00:15:45;41.76;39.73;49.46;;
69616;Laerm;56822;52.516;4.708;2024-02-23T00:15:55;42.73;39.78;52.03;;
69616;Laerm;56822;52.516;4.708;2024-02-23T00:16:06;40.67;39.48;42.06;;
69616;Laerm;56822;52.516;4.708;2024-02-23T00:16:16;41.89;39.51;49.14;;
69616;Laerm;56822;52.516;4.708;2024-02-23T00:16:26;42.14;39.67;49.82;;
69616;Laerm;56822;52.516;4.708;2024-02-23T00:16:37;43.66;39.81;59.70;;
69616;Laerm;56822;52.516;4.708;2024-02-23T00:16:48;40.94;39.25;46.20;;
69616;Laerm;56822;52.516;4.708;2024-02-23T00:16:58;41.19;39.03;49.90;;
69616;Laerm;56822;52.516;4.708;2024-02-23T00:17:11;41.38;39.40;44.93;;
69616;Laerm;56822;52.516;4.708;2024-02-23T00:17:22;41.42;39.30;45.93;;
69616;Laerm;56822;52.516;4.708;2024-02-23T00:17:33;41.02;39.63;42.72;;
69616;Laerm;56822;52.516;4.708;2024-02-23T00:17:43;41.75;39.96;49.86;;
69616;Laerm;56822;52.516;4.708;2024-02-23T00:17:54;41.28;39.70;46.63;;
69616;Laerm;56822;52.516;4.708;2024-02-23T00:18:04;41.09;39.44;44.93;;
69616;Laerm;56822;52.516;4.708;2024-02-23T00:18:16;41.35;39.51;49.85;;
69616;Laerm;56822;52.516;4.708;2024-02-23T00:18:27;40.71;39.63;42.76;;
69616;Laerm;56822;52.516;4.708;2024-02-23T00:18:37;40.50;39.40;42.23;;
69616;Laerm;56822;52.516;4.708;2024-02-23T00:18:48;40.63;39.10;42.40;;
69616;Laerm;56822;52.516;4.708;2024-02-23T00:18:58;40.64;39.19;42.92;;
69616;Laerm;56822;52.516;4.708;2024-02-23T00:19:08;40.58;39.22;43.28;;
69616;Laerm;56822;52.516;4.708;2024-02-23T00:19:21;41.60;39.48;45.63;;
69616;Laerm;56822;52.516;4.708;2024-02-23T00:19:32;41.14;39.46;44.27;;
69616;Laerm;56822;52.516;4.708;2024-02-23T00:19:45;41.00;39.69;43.27;;
69616;Laerm;56822;52.516;4.708;2024-02-23T00:19:55;40.89;39.28;43.64;;
69616;Laerm;56822;52.516;4.708;2024-02-23T00:20:08;41.05;39.20;44.78;;
69616;Laerm;56822;52.516;4.708;2024-02-23T00:20:20;42.91;39.85;49.88;;
69616;Laerm;56822;52.516;4.708;2024-02-23T00:20:31;41.36;39.73;42.99;;
69616;Laerm;56822;52.516;4.708;2024-02-23T00:20:41;41.26;39.86;43.57;;
69616;Laerm;56822;52.516;4.708;2024-02-23T00:20:51;41.21;39.39;42.90;;
69616;Laerm;56822;52.516;4.708;2024-02-23T00:21:02;41.09;39.66;43.54;;
69616;Laerm;56822;52.516;4.708;2024-02-23T00:21:12;41.06;39.40;43.14;;
69616;Laerm;56822;52.516;4.708;2024-02-23T00:21:22;41.61;39.68;44.41;;
69616;Laerm;56822;52.516;4.708;2024-02-23T00:21:33;41.47;39.64;45.67;;
69616;Laerm;56822;52.516;4.708;2024-02-23T00:21:43;41.31;39.70;44.45;;
69616;Laerm;56822;52.516;4.708;2024-02-23T00:21:57;41.99;39.88;50.58;;
69616;Laerm;56822;52.516;4.708;2024-02-23T00:22:09;42.55;40.54;48.74;;
69616;Laerm;56822;52.516;4.708;2024-02-23T00:22:20;41.78;40.08;44.43;;
69616;Laerm;56822;52.516;4.708;2024-02-23T00:22:32;41.21;39.29;43.78;;
69616;Laerm;56822;52.516;4.708;2024-02-23T00:22:42;41.06;39.39;43.66;;
69616;Laerm;56822;52.516;4.708;2024-02-23T00:22:53;41.80;39.55;47.13;;
69616;Laerm;56822;52.516;4.708;2024-02-23T00:23:03;42.14;40.06;48.69;;
69616;Laerm;56822;52.516;4.708;2024-02-23T00:23:13;41.29;39.40;46.88;;
69616;Laerm;56822;52.516;4.708;2024-02-23T00:23:24;41.40;39.99;45.71;;
69616;Laerm;56822;52.516;4.708;2024-02-23T00:23:34;42.04;40.01;49.86;;
69616;Laerm;56822;52.516;4.708;2024-02-23T00:23:44;41.75;39.85;49.37;;
69616;Laerm;56822;52.516;4.708;2024-02-23T00:23:55;42.05;40.06;44.77;;
69616;Laerm;56822;52.516;4.708;2024-02-23T00:24:05;43.63;40.35;47.74;;
69616;Laerm;56822;52.516;4.708;2024-02-23T00:24:16;42.53;40.00;44.75;;
69616;Laerm;56822;52.516;4.708;2024-02-23T00:24:26;46.39;40.09;57.86;;
69616;Laerm;56822;52.516;4.708;2024-02-23T00:24:37;41.99;40.16;48.58;;
69616;Laerm;56822;52.516;4.708;2024-02-23T00:24:47;41.85;40.04;47.51;;
69616;Laerm;56822;52.516;4.708;2024-02-23T00:24:57;42.32;39.92;54.68;;
69616;Laerm;56822;52.516;4.708;2024-02-23T00:25:07;41.91;40.11;49.03;;
69616;Laerm;56822;52.516;4.708;2024-02-23T00:25:18;41.48;39.60;43.38;;
69616;Laerm;56822;52.516;4.708;2024-02-23T00:25:29;41.53;39.88;44.15;;
69616;Laerm;56822;52.516;4.708;2024-02-23T00:25:39;41.67;40.43;45.67;;
69616;Laerm;56822;52.516;4.708;2024-02-23T00:25:50;42.22;40.24;46.30;;
69616;Laerm;56822;52.516;4.708;2024-02-23T00:26:00;41.73;40.00;43.99;;
69616;Laerm;56822;52.516;4.708;2024-02-23T00:26:10;43.84;40.90;49.91;;
69616;Laerm;56822;52.516;4.708;2024-02-23T00:26:21;42.10;40.55;43.64;;
69616;Laerm;56822;52.516;4.708;2024-02-23T00:26:31;41.95;39.90;44.62;;
69616;Laerm;56822;52.516;4.708;2024-02-23T00:26:41;42.05;39.93;44.34;;
69616;Laerm;56822;52.516;4.708;2024-02-23T00:26:51;42.27;40.48;43.92;;
69616;Laerm;56822;52.516;4.708;2024-02-23T00:27:02;42.05;40.42;43.82;;
69616;Laerm;56822;52.516;4.708;2024-02-23T00:27:12;47.99;41.07;52.08;;
69616;Laerm;56822;52.516;4.708;2024-02-23T00:27:22;51.11;48.04;54.56;;
69616;Laerm;56822;52.516;4.708;2024-02-23T00:27:33;51.27;48.21;55.57;;
69616;Laerm;56822;52.516;4.708;2024-02-23T00:27:43;51.02;47.76;55.38;;
69616;Laerm;56822;52.516;4.708;2024-02-23T00:27:54;51.80;44.18;56.74;;
69616;Laerm;56822;52.516;4.708;2024-02-23T00:28:04;43.72;40.09;56.51;;
69616;Laerm;56822;52.516;4.708;2024-02-23T00:28:15;43.24;39.99;54.68;;
69616;Laerm;56822;52.516;4.708;2024-02-23T00:28:25;43.42;40.14;56.65;;
69616;Laerm;56822;52.516;4.708;2024-02-23T00:28:35;41.60;39.84;44.29;;
69616;Laerm;56822;52.516;4.708;2024-02-23T00:28:46;42.22;40.83;44.55;;
69616;Laerm;56822;52.516;4.708;2024-02-23T00:28:56;41.59;39.92;47.61;;
69616;Laerm;56822;52.516;4.708;2024-02-23T00:29:06;44.46;40.20;49.17;;
69616;Laerm;56822;52.516;4.708;2024-02-23T00:29:17;41.63;40.22;46.78;;
69616;Laerm;56822;52.516;4.708;2024-02-23T00:29:27;43.22;41.14;48.38;;
69616;Laerm;56822;52.516;4.708;2024-02-23T00:29:38;42.41;40.07;55.43;;
69616;Laerm;56822;52.516;4.708;2024-02-23T00:29:48;42.67;39.85;50.36;;
69616;Laerm;56822;52.516;4.708;2024-02-23T00:29:59;41.77;40.07;45.96;;
69616;Laerm;56822;52.516;4.708;2024-02-23T00:30:09;42.10;40.06;49.72;;
69616;Laerm;56822;52.516;4.708;2024-02-23T00:30:20;41.67;40.04;43.99;;
69616;Laerm;56822;52.516;4.708;2024-02-23T00:30:30;41.49;39.65;45.23;;
69616;Laerm;56822;52.516;4.708;2024-02-23T00:30:41;44.85;40.32;59.19;;
69616;Laerm;56822;52.516;4.708;2024-02-23T00:30:51;42.30;40.08;47.07;;
69616;Laerm;56822;52.516;4.708;2024-02-23T00:31:01;41.62;40.24;43.10;;
69616;Laerm;56822;52.516;4.708;2024-02-23T00:31:11;41.75;39.93;44.65;;
69616;Laerm;56822;52.516;4.708;2024-02-23T00:31:22;41.10;39.45;43.88;;
69616;Laerm;56822;52.516;4.708;2024-02-23T00:31:32;41.23;39.75;44.25;;
69616;Laerm;56822;52.516;4.708;2024-02-23T00:31:43;41.35;39.18;43.70;;
69616;Laerm;56822;52.516;4.708;2024-02-23T00:31:55;41.70;39.42;44.54;;
69616;Laerm;56822;52.516;4.708;2024-02-23T00:32:05;42.15;39.72;50.46;;
69616;Laerm;56822;52.516;4.708;2024-02-23T00:32:15;42.05;39.96;46.15;;
69616;Laerm;56822;52.516;4.708;2024-02-23T00:32:26;44.57;41.41;56.93;;
69616;Laerm;56822;52.516;4.708;2024-02-23T00:32:36;41.53;39.76;45.17;;
69616;Laerm;56822;52.516;4.708;2024-02-23T00:32:47;44.43;40.11;52.58;;
69616;Laerm;56822;52.516;4.708;2024-02-23T00:32:57;41.80;39.75;47.01;;
69616;Laerm;56822;52.516;4.708;2024-02-23T00:33:08;40.95;39.13;45.34;;
69616;Laerm;56822;52.516;4.708;2024-02-23T00:33:20;41.24;38.83;46.55;;
69616;Laerm;56822;52.516;4.708;2024-02-23T00:33:30;41.44;39.48;43.99;;
69616;Laerm;56822;52.516;4.708;2024-02-23T00:33:40;40.90;39.43;43.53;;
69616;Laerm;56822;52.516;4.708;2024-02-23T00:33:52;41.36;39.74;45.02;;
69616;Laerm;56822;52.516;4.708;2024-02-23T00:34:03;42.01;39.76;50.42;;
69616;Laerm;56822;52.516;4.708;2024-02-23T00:34:13;41.92;39.55;52.90;;
69616;Laerm;56822;52.516;4.708;2024-02-23T00:34:24;42.71;39.74;50.35;;
69616;Laerm;56822;52.516;4.708;2024-02-23T00:34:34;45.98;41.24;55.08;;
69616;Laerm;56822;52.516;4.708;2024-02-23T00:34:44;51.31;42.58;66.36;;
69616;Laerm;56822;52.516;4.708;2024-02-23T00:34:56;50.11;42.56;63.19;;
69616;Laerm;56822;52.516;4.708;2024-02-23T00:35:07;41.29;39.36;45.67;;
69616;Laerm;56822;52.516;4.708;2024-02-23T00:35:17;41.23;39.94;43.89;;
69616;Laerm;56822;52.516;4.708;2024-02-23T00:35:27;41.48;39.85;44.85;;
69616;Laerm;56822;52.516;4.708;2024-02-23T00:35:38;41.16;39.67;44.46;;
69616;Laerm;56822;52.516;4.708;2024-02-23T00:35:48;40.95;39.20;48.31;;
69616;Laerm;56822;52.516;4.708;2024-02-23T00:35:58;41.06;39.05;44.56;;
69616;Laerm;56822;52.516;4.708;2024-02-23T00:36:08;40.98;39.22;44.45;;
69616;Laerm;56822;52.516;4.708;2024-02-23T00:36:19;42.10;39.95;49.65;;
69616;Laerm;56822;52.516;4.708;2024-02-23T00:36:29;42.27;39.45;45.82;;
69616;Laerm;56822;52.516;4.708;2024-02-23T00:36:40;42.00;39.78;47.26;;
69616;Laerm;56822;52.516;4.708;2024-02-23T00:36:50;40.90;39.43;44.72;;
69616;Laerm;56822;52.516;4.708;2024-02-23T00:37:01;43.00;40.22;47.29;;
69616;Laerm;56822;52.516;4.708;2024-02-23T00:37:12;41.81;39.56;46.14;;
69616;Laerm;56822;52.516;4.708;2024-02-23T00:37:22;41.14;39.34;44.67;;
69616;Laerm;56822;52.516;4.708;2024-02-23T00:37:32;40.35;39.08;42.91;;
69616;Laerm;56822;52.516;4.708;2024-02-23T00:37:46;41.16;38.90;46.44;;
69616;Laerm;56822;52.516;4.708;2024-02-23T00:37:56;41.36;39.07;45.12;;
69616;Laerm;56822;52.516;4.708;2024-02-23T00:38:06;41.31;39.30;45.86;;
69616;Laerm;56822;52.516;4.708;2024-02-23T00:38:18;41.56;39.23;47.54;;
69616;Laerm;56822;52.516;4.708;2024-02-23T00:38:28;41.97;39.32;45.54;;
69616;Laerm;56822;52.516;4.708;2024-02-23T00:38:38;42.81;40.38;55.02;;
69616;Laerm;56822;52.516;4.708;2024-02-23T00:38:49;41.10;39.40;44.74;;
69616;Laerm;56822;52.516;4.708;2024-02-23T00:38:59;42.82;39.54;51.07;;
69616;Laerm;56822;52.516;4.708;2024-02-23T00:39:09;41.19;38.75;45.79;;
69616;Laerm;56822;52.516;4.708;2024-02-23T00:39:20;40.58;39.05;43.65;;
69616;Laerm;56822;52.516;4.708;2024-02-23T00:39:30;40.90;39.17;45.72;;
69616;Laerm;56822;52.516;4.708;2024-02-23T00:39:42;40.74;39.16;44.84;;
69616;Laerm;56822;52.516;4.708;2024-02-23T00:39:52;41.56;39.36;46.71;;
69616;Laerm;56822;52.516;4.708;2024-02-23T00:40:03;42.28;39.75;51.30;;
69616;Laerm;56822;52.516;4.708;2024-02-23T00:40:14;41.25;39.45;47.43;;
69616;Laerm;56822;52.516;4.708;2024-02-23T00:40:24;40.85;39.56;44.55;;
69616;Laerm;56822;52.516;4.708;2024-02-23T00:40:34;40.84;39.45;43.48;;
69616;Laerm;56822;52.516;4.708;2024-02-23T00:40:45;41.48;39.74;46.98;;
69616;Laerm;56822;52.516;4.708;2024-02-23T00:40:55;41.34;39.38;46.21;;
69616;Laerm;56822;52.516;4.708;2024-02-23T00:41:05;40.93;39.33;46.13;;
69616;Laerm;56822;52.516;4.708;2024-02-23T00:41:16;40.79;39.41;44.43;;
69616;Laerm;56822;52.516;4.708;2024-02-23T00:41:27;40.51;39.21;43.72;;
69616;Laerm;56822;52.516;4.708;2024-02-23T00:41:38;40.63;39.00;43.99;;
69616;Laerm;56822;52.516;4.708;2024-02-23T00:41:48;40.35;39.13;42.92;;
69616;Laerm;56822;52.516;4.708;2024-02-23T00:41:58;40.21;38.41;42.62;;
69616;Laerm;56822;52.516;4.708;2024-02-23T00:42:09;40.36;38.99;46.12;;
69616;Laerm;56822;52.516;4.708;2024-02-23T00:42:19;40.71;39.30;42.96;;
69616;Laerm;56822;52.516;4.708;2024-02-23T00:42:31;41.26;39.31;45.28;;
69616;Laerm;56822;52.516;4.708;2024-02-23T00:42:41;40.56;38.92;45.69;;
69616;Laerm;56822;52.516;4.708;2024-02-23T00:42:51;40.78;39.07;44.79;;
69616;Laerm;56822;52.516;4.708;2024-02-23T00:43:02;41.32;39.36;46.91;;
69616;Laerm;56822;52.516;4.708;2024-02-23T00:43:13;40.87;39.05;45.59;;
69616;Laerm;56822;52.516;4.708;2024-02-23T00:43:23;40.16;38.71;43.77;;
69616;Laerm;56822;52.516;4.708;2024-02-23T00:43:37;40.12;38.92;43.31;;
69616;Laerm;56822;52.516;4.708;2024-02-23T00:43:48;41.06;38.80;46.69;;
69616;Laerm;56822;52.516;4.708;2024-02-23T00:43:58;42.71;39.44;53.24;;
69616;Laerm;56822;52.516;4.708;2024-02-23T00:44:08;43.82;39.56;56.11;;
69616;Laerm;56822;52.516;4.708;2024-02-23T00:44:18;43.90;40.09;51.16;;
69616;Laerm;56822;52.516;4.708;2024-02-23T00:44:29;49.06;40.53;66.34;;
69616;Laerm;56822;52.516;4.708;2024-02-23T00:44:39;41.85;39.48;49.49;;
69616;Laerm;56822;52.516;4.708;2024-02-23T00:44:49;41.27;39.24;48.46;;
69616;Laerm;56822;52.516;4.708;2024-02-23T00:45:00;40.45;39.14;47.90;;
69616;Laerm;56822;52.516;4.708;2024-02-23T00:45:10;41.22;38.73;55.93;;
69616;Laerm;56822;52.516;4.708;2024-02-23T00:45:20;40.17;38.71;45.85;;
69616;Laerm;56822;52.516;4.708;2024-02-23T00:45:31;40.03;38.75;41.88;;
69616;Laerm;56822;52.516;4.708;2024-02-23T00:45:42;40.10;38.84;42.60;;
69616;Laerm;56822;52.516;4.708;2024-02-23T00:45:52;41.59;39.04;48.83;;
69616;Laerm;56822;52.516;4.708;2024-02-23T00:46:02;40.69;38.84;43.08;;
69616;Laerm;56822;52.516;4.708;2024-02-23T00:46:13;40.63;39.11;43.23;;
69616;Laerm;56822;52.516;4.708;2024-02-23T00:46:24;40.38;38.40;43.37;;
69616;Laerm;56822;52.516;4.708;2024-02-23T00:46:34;41.35;38.89;47.56;;
69616;Laerm;56822;52.516;4.708;2024-02-23T00:46:45;42.43;39.36;46.68;;
69616;Laerm;56822;52.516;4.708;2024-02-23T00:46:55;40.35;38.89;41.92;;
69616;Laerm;56822;52.516;4.708;2024-02-23T00:47:07;42.01;39.35;46.40;;
69616;Laerm;56822;52.516;4.708;2024-02-23T00:47:18;41.30;39.59;47.98;;
69616;Laerm;56822;52.516;4.708;2024-02-23T00:47:28;41.41;39.98;43.84;;
69616;Laerm;56822;52.516;4.708;2024-02-23T00:47:39;41.26;40.14;45.38;;
69616;Laerm;56822;52.516;4.708;2024-02-23T00:47:49;41.11;39.06;52.67;;
69616;Laerm;56822;52.516;4.708;2024-02-23T00:47:59;41.16;39.36;50.42;;
69616;Laerm;56822;52.516;4.708;2024-02-23T00:48:10;41.66;39.70;46.83;;
69616;Laerm;56822;52.516;4.708;2024-02-23T00:48:22;40.85;39.13;48.08;;
69616;Laerm;56822;52.516;4.708;2024-02-23T00:48:33;40.60;39.19;47.82;;
69616;Laerm;56822;52.516;4.708;2024-02-23T00:48:43;41.27;39.49;43.38;;
69616;Laerm;56822;52.516;4.708;2024-02-23T00:48:53;40.32;38.89;43.63;;
69616;Laerm;56822;52.516;4.708;2024-02-23T00:49:05;40.99;38.52;47.61;;
69616;Laerm;56822;52.516;4.708;2024-02-23T00:49:15;40.63;39.15;42.65;;
69616;Laerm;56822;52.516;4.708;2024-02-23T00:49:25;40.28;39.09;42.48;;
69616;Laerm;56822;52.516;4.708;2024-02-23T00:49:35;40.47;39.25;42.66;;
69616;Laerm;56822;52.516;4.708;2024-02-23T00:49:46;41.01;39.05;42.75;;
69616;Laerm;56822;52.516;4.708;2024-02-23T00:49:56;41.50;39.51;44.73;;
69616;Laerm;56822;52.516;4.708;2024-02-23T00:50:06;41.82;39.08;48.18;;
69616;Laerm;56822;52.516;4.708;2024-02-23T00:50:17;42.07;39.71;45.46;;
69616;Laerm;56822;52.516;4.708;2024-02-23T00:50:27;41.86;38.96;45.89;;
69616;Laerm;56822;52.516;4.708;2024-02-23T00:50:37;41.76;39.57;44.78;;
69616;Laerm;56822;52.516;4.708;2024-02-23T00:50:48;41.20;39.45;44.15;;
69616;Laerm;56822;52.516;4.708;2024-02-23T00:50:58;41.22;39.38;44.45;;
69616;Laerm;56822;52.516;4.708;2024-02-23T00:51:08;41.65;39.36;49.47;;
69616;Laerm;56822;52.516;4.708;2024-02-23T00:51:18;42.03;39.50;50.18;;
69616;Laerm;56822;52.516;4.708;2024-02-23T00:51:29;40.32;39.12;41.69;;
69616;Laerm;56822;52.516;4.708;2024-02-23T00:51:40;44.32;38.74;57.48;;
69616;Laerm;56822;52.516;4.708;2024-02-23T00:51:50;45.20;40.01;49.71;;
69616;Laerm;56822;52.516;4.708;2024-02-23T00:52:00;42.07;39.56;51.36;;
69616;Laerm;56822;52.516;4.708;2024-02-23T00:52:11;41.45;39.95;44.81;;
69616;Laerm;56822;52.516;4.708;2024-02-23T00:52:21;40.80;39.13;45.06;;
69616;Laerm;56822;52.516;4.708;2024-02-23T00:52:31;40.75;39.08;43.74;;
69616;Laerm;56822;52.516;4.708;2024-02-23T00:52:42;46.82;39.65;64.64;;
69616;Laerm;56822;52.516;4.708;2024-02-23T00:52:53;42.89;39.15;49.03;;
69616;Laerm;56822;52.516;4.708;2024-02-23T00:53:03;42.22;39.87;48.58;;
69616;Laerm;56822;52.516;4.708;2024-02-23T00:53:14;41.20;39.23;46.86;;
69616;Laerm;56822;52.516;4.708;2024-02-23T00:53:24;41.17;39.25;45.82;;
69616;Laerm;56822;52.516;4.708;2024-02-23T00:53:34;41.79;38.94;47.88;;
69616;Laerm;56822;52.516;4.708;2024-02-23T00:53:45;42.98;39.28;51.57;;
69616;Laerm;56822;52.516;4.708;2024-02-23T00:53:55;43.56;40.15;50.20;;
69616;Laerm;56822;52.516;4.708;2024-02-23T00:54:05;42.95;39.95;52.53;;
69616;Laerm;56822;52.516;4.708;2024-02-23T00:54:17;41.44;39.64;49.52;;
69616;Laerm;56822;52.516;4.708;2024-02-23T00:54:28;43.47;39.90;54.28;;
69616;Laerm;56822;52.516;4.708;2024-02-23T00:54:38;42.73;39.86;48.80;;
69616;Laerm;56822;52.516;4.708;2024-02-23T00:54:48;43.46;39.67;51.03;;
69616;Laerm;56822;52.516;4.708;2024-02-23T00:54:59;42.44;39.18;50.76;;
69616;Laerm;56822;52.516;4.708;2024-02-23T00:55:10;42.95;39.70;50.43;;
69616;Laerm;56822;52.516;4.708;2024-02-23T00:55:20;42.02;39.17;49.28;;
69616;Laerm;56822;52.516;4.708;2024-02-23T00:55:31;45.35;40.04;53.28;;
69616;Laerm;56822;52.516;4.708;2024-02-23T00:55:41;41.83;39.73;46.54;;
69616;Laerm;56822;52.516;4.708;2024-02-23T00:55:52;42.81;39.27;48.31;;
69616;Laerm;56822;52.516;4.708;2024-02-23T00:56:02;43.08;39.71;49.20;;
69616;Laerm;56822;52.516;4.708;2024-02-23T00:56:12;44.05;40.51;50.31;;
69616;Laerm;56822;52.516;4.708;2024-02-23T00:56:23;42.82;39.63;48.33;;
69616;Laerm;56822;52.516;4.708;2024-02-23T00:56:33;44.46;40.27;51.15;;
69616;Laerm;56822;52.516;4.708;2024-02-23T00:56:44;43.17;39.76;50.95;;
69616;Laerm;56822;52.516;4.708;2024-02-23T00:56:55;43.31;39.79;53.16;;
69616;Laerm;56822;52.516;4.708;2024-02-23T00:57:05;43.48;39.56;48.41;;
69616;Laerm;56822;52.516;4.708;2024-02-23T00:57:15;44.66;40.49;53.12;;
69616;Laerm;56822;52.516;4.708;2024-02-23T00:57:26;43.00;39.82;52.01;;
69616;Laerm;56822;52.516;4.708;2024-02-23T00:57:39;43.43;40.09;49.07;;
69616;Laerm;56822;52.516;4.708;2024-02-23T00:57:51;43.29;39.96;54.33;;
69616;Laerm;56822;52.516;4.708;2024-02-23T00:58:01;42.07;39.92;45.37;;
69616;Laerm;56822;52.516;4.708;2024-02-23T00:58:14;43.34;40.48;52.91;;
69616;Laerm;56822;52.516;4.708;2024-02-23T00:58:25;41.38;39.86;43.88;;
69616;Laerm;56822;52.516;4.708;2024-02-23T00:58:36;43.68;39.93;48.62;;
69616;Laerm;56822;52.516;4.708;2024-02-23T00:58:46;43.30;40.25;51.47;;
69616;Laerm;56822;52.516;4.708;2024-02-23T00:58:56;42.96;40.17;45.25;;
69616;Laerm;56822;52.516;4.708;2024-02-23T00:59:07;44.07;40.24;51.05;;
69616;Laerm;56822;52.516;4.708;2024-02-23T00:59:17;46.28;40.80;53.46;;
69616;Laerm;56822;52.516;4.708;2024-02-23T00:59:27;45.11;40.62;53.30;;